Portada
METAR-TAF:

METAR-TAF

Aeropuertos :

Trípoli, Libia

Aeropuerto Internacional Mitiga

latitud: 32-54N, longitud: 13-17E, altitud: 11 m

Observación

El informe se hizo hace 27 minutos, a las 23:50 UTC
Viento 2 kt del sureste
Temperatura 23°C
Humedad 78%
Presión 1019 hPa
Visibilidad: 7000 m
Nubes dispersas a una altura de 3000 ft

METAR: HLLM 252350Z 13002KT 7000 SCT030 23/19 Q1019

Hora: 02:17 (00:17 UTC)

Pronóstico

El informe se hizo hace 1 hora y 17 minutos, a las 23:00 UTC
Pronóstico válido del 26 a las 00 UTC al 26 a las 24 UTC
Viento 2 kt con dirección variable
Visibilidad: 8000 m
Evolucionando progresivamente
del 26 a las 06 UTC al 26 a las 08 UTC
Viento 10 kt del este-noreste

TAF: HLLM 252300Z 2600/2624 VRB02KT 8000 NSC BECMG 2606/2608 06010KT

Observaciones y pronósticos meteorológicos de más de 4000 aeropuertos (mensajes METAR y TAF).

Los puntos amarillos y rojos representan las estaciones disponibles.

Ponga el ratón en el punto deseado para ver el nombre de la estación.

Haga clic para ver las observaciones y los pronósticos meteorológicos.

Para cambiar el mapa : haga clic en los botones verdes con una cruz de color negro para hacer un zoom, en el botón verde con un guión para alejar o en las flechas verdes para mapas adyacentes.


METAR-TAF: